sensor_id;sensor_type;location;lat;lon;timestamp;temperature;humidity
51337;DHT22;37421;51.176;17.196;2022-11-02T00:01:17;19.40;99.90
51337;DHT22;37421;51.176;17.196;2022-11-02T00:03:45;19.40;99.90
51337;DHT22;37421;51.176;17.196;2022-11-02T00:06:11;19.40;99.90
51337;DHT22;37421;51.176;17.196;2022-11-02T00:08:40;19.40;99.90
51337;DHT22;37421;51.176;17.196;2022-11-02T00:11:06;19.40;99.90
51337;DHT22;37421;51.176;17.196;2022-11-02T00:13:32;19.40;99.90
51337;DHT22;37421;51.176;17.196;2022-11-02T00:16:14;19.40;99.90
51337;DHT22;37421;51.176;17.196;2022-11-02T00:18:44;19.40;99.90
51337;DHT22;37421;51.176;17.196;2022-11-02T00:21:12;19.30;99.90
51337;DHT22;37421;51.176;17.196;2022-11-02T00:23:40;19.30;99.90
51337;DHT22;37421;51.176;17.196;2022-11-02T00:26:06;19.30;99.90
51337;DHT22;37421;51.176;17.196;2022-11-02T00:28:32;19.30;99.90
51337;DHT22;37421;51.176;17.196;2022-11-02T00:30:59;19.30;99.90
51337;DHT22;37421;51.176;17.196;2022-11-02T00:33:25;19.30;99.90
51337;DHT22;37421;51.176;17.196;2022-11-02T00:35:55;19.20;99.90
51337;DHT22;37421;51.176;17.196;2022-11-02T00:38:21;19.20;99.90
51337;DHT22;37421;51.176;17.196;2022-11-02T00:40:47;19.20;99.90
51337;DHT22;37421;51.176;17.196;2022-11-02T00:43:13;19.20;99.90
51337;DHT22;37421;51.176;17.196;2022-11-02T00:45:39;19.20;99.90
51337;DHT22;37421;51.176;17.196;2022-11-02T00:48:05;19.20;99.90
51337;DHT22;37421;51.176;17.196;2022-11-02T00:50:31;19.20;99.90
51337;DHT22;37421;51.176;17.196;2022-11-02T00:52:57;19.20;99.90
51337;DHT22;37421;51.176;17.196;2022-11-02T00:55:23;19.10;99.90
51337;DHT22;37421;51.176;17.196;2022-11-02T00:57:49;19.10;99.90
51337;DHT22;37421;51.176;17.196;2022-11-02T01:00:15;19.20;99.90
51337;DHT22;37421;51.176;17.196;2022-11-02T01:02:42;19.10;99.90
51337;DHT22;37421;51.176;17.196;2022-11-02T01:05:09;19.10;99.90
51337;DHT22;37421;51.176;17.196;2022-11-02T01:07:35;19.10;99.90
51337;DHT22;37421;51.176;17.196;2022-11-02T01:10:06;19.10;99.90
51337;DHT22;37421;51.176;17.196;2022-11-02T01:12:35;19.10;99.90
51337;DHT22;37421;51.176;17.196;2022-11-02T01:15:01;19.10;99.90
51337;DHT22;37421;51.176;17.196;2022-11-02T01:17:28;19.10;99.90
51337;DHT22;37421;51.176;17.196;2022-11-02T01:19:54;19.10;99.90
51337;DHT22;37421;51.176;17.196;2022-11-02T01:22:20;19.10;99.90
51337;DHT22;37421;51.176;17.196;2022-11-02T01:24:46;19.00;99.90
51337;DHT22;37421;51.176;17.196;2022-11-02T01:27:12;19.00;99.90
51337;DHT22;37421;51.176;17.196;2022-11-02T01:29:38;19.10;99.90
51337;DHT22;37421;51.176;17.196;2022-11-02T01:32:04;19.00;99.90
51337;DHT22;37421;51.176;17.196;2022-11-02T01:34:30;19.00;99.90
51337;DHT22;37421;51.176;17.196;2022-11-02T01:36:56;19.00;99.90
51337;DHT22;37421;51.176;17.196;2022-11-02T01:39:22;19.00;99.90
51337;DHT22;37421;51.176;17.196;2022-11-02T01:41:52;19.00;99.90
51337;DHT22;37421;51.176;17.196;2022-11-02T01:44:36;19.00;99.90
51337;DHT22;37421;51.176;17.196;2022-11-02T01:47:18;19.00;99.90
51337;DHT22;37421;51.176;17.196;2022-11-02T01:49:47;19.00;99.90
51337;DHT22;37421;51.176;17.196;2022-11-02T01:52:19;19.00;99.90
51337;DHT22;37421;51.176;17.196;2022-11-02T01:54:55;19.00;99.90
51337;DHT22;37421;51.176;17.196;2022-11-02T01:57:24;18.90;99.90
51337;DHT22;37421;51.176;17.196;2022-11-02T01:59:59;18.90;99.90
51337;DHT22;37421;51.176;17.196;2022-11-02T02:02:27;18.90;99.90
51337;DHT22;37421;51.176;17.196;2022-11-02T02:05:05;18.90;99.90
51337;DHT22;37421;51.176;17.196;2022-11-02T02:07:32;18.90;99.90
51337;DHT22;37421;51.176;17.196;2022-11-02T02:10:00;18.90;99.90
51337;DHT22;37421;51.176;17.196;2022-11-02T02:12:27;18.90;99.90
51337;DHT22;37421;51.176;17.196;2022-11-02T02:14:54;18.90;99.90
51337;DHT22;37421;51.176;17.196;2022-11-02T02:17:25;18.90;99.90
51337;DHT22;37421;51.176;17.196;2022-11-02T02:30:48;18.80;99.90
51337;DHT22;37421;51.176;17.196;2022-11-02T02:36:29;18.80;99.90
51337;DHT22;37421;51.176;17.196;2022-11-02T02:41:49;18.80;99.90
51337;DHT22;37421;51.176;17.196;2022-11-02T02:44:20;18.80;99.90
51337;DHT22;37421;51.176;17.196;2022-11-02T02:46:56;18.80;99.90
51337;DHT22;37421;51.176;17.196;2022-11-02T02:49:53;18.80;99.90
51337;DHT22;37421;51.176;17.196;2022-11-02T02:52:21;18.80;99.90
51337;DHT22;37421;51.176;17.196;2022-11-02T02:54:50;18.70;99.90
51337;DHT22;37421;51.176;17.196;2022-11-02T02:57:20;18.70;99.90
51337;DHT22;37421;51.176;17.196;2022-11-02T02:59:47;18.70;99.90
51337;DHT22;37421;51.176;17.196;2022-11-02T03:02:27;18.80;99.90
51337;DHT22;37421;51.176;17.196;2022-11-02T03:04:55;18.80;99.90
51337;DHT22;37421;51.176;17.196;2022-11-02T03:07:27;18.80;99.90
51337;DHT22;37421;51.176;17.196;2022-11-02T03:15:19;18.80;99.90
51337;DHT22;37421;51.176;17.196;2022-11-02T03:23:50;18.80;99.90
51337;DHT22;37421;51.176;17.196;2022-11-02T03:26:20;18.80;99.90
51337;DHT22;37421;51.176;17.196;2022-11-02T03:34:08;19.00;99.90
51337;DHT22;37421;51.176;17.196;2022-11-02T03:37:10;19.10;99.90
51337;DHT22;37421;51.176;17.196;2022-11-02T03:39:41;19.30;99.90
51337;DHT22;37421;51.176;17.196;2022-11-02T03:42:12;19.20;99.90
51337;DHT22;37421;51.176;17.196;2022-11-02T03:44:38;19.30;99.90
51337;DHT22;37421;51.176;17.196;2022-11-02T03:47:08;19.40;99.90
51337;DHT22;37421;51.176;17.196;2022-11-02T03:49:39;19.40;99.90
51337;DHT22;37421;51.176;17.196;2022-11-02T03:52:10;19.40;99.90
51337;DHT22;37421;51.176;17.196;2022-11-02T03:57:39;19.50;99.90
51337;DHT22;37421;51.176;17.196;2022-11-02T04:00:15;19.60;99.90
51337;DHT22;37421;51.176;17.196;2022-11-02T04:02:53;19.60;99.90
51337;DHT22;37421;51.176;17.196;2022-11-02T04:05:30;19.60;99.90
51337;DHT22;37421;51.176;17.196;2022-11-02T04:07:56;19.50;99.90
51337;DHT22;37421;51.176;17.196;2022-11-02T04:10:41;19.60;99.90
51337;DHT22;37421;51.176;17.196;2022-11-02T04:13:28;19.60;99.90
51337;DHT22;37421;51.176;17.196;2022-11-02T04:16:13;19.60;99.90
51337;DHT22;37421;51.176;17.196;2022-11-02T04:18:40;19.60;99.90
51337;DHT22;37421;51.176;17.196;2022-11-02T04:21:24;19.70;99.90
51337;DHT22;37421;51.176;17.196;2022-11-02T04:23:50;19.60;99.90
51337;DHT22;37421;51.176;17.196;2022-11-02T04:26:35;19.60;99.90
51337;DHT22;37421;51.176;17.196;2022-11-02T04:29:01;19.60;99.90
51337;DHT22;37421;51.176;17.196;2022-11-02T04:31:27;19.60;99.90
51337;DHT22;37421;51.176;17.196;2022-11-02T04:33:53;19.60;99.90
51337;DHT22;37421;51.176;17.196;2022-11-02T04:36:19;19.60;99.90
51337;DHT22;37421;51.176;17.196;2022-11-02T04:38:45;19.60;99.90
51337;DHT22;37421;51.176;17.196;2022-11-02T04:41:13;19.60;99.90
51337;DHT22;37421;51.176;17.196;2022-11-02T04:43:59;19.60;99.90
51337;DHT22;37421;51.176;17.196;2022-11-02T04:46:28;19.60;99.90
51337;DHT22;37421;51.176;17.196;2022-11-02T04:48:55;19.60;99.90
51337;DHT22;37421;51.176;17.196;2022-11-02T04:51:22;19.60;99.90
51337;DHT22;37421;51.176;17.196;2022-11-02T04:53:50;19.70;99.90
51337;DHT22;37421;51.176;17.196;2022-11-02T04:56:16;19.60;99.90
51337;DHT22;37421;51.176;17.196;2022-11-02T04:58:51;19.60;99.90
51337;DHT22;37421;51.176;17.196;2022-11-02T05:01:18;19.60;99.90
51337;DHT22;37421;51.176;17.196;2022-11-02T05:03:48;19.60;99.90
51337;DHT22;37421;51.176;17.196;2022-11-02T05:06:15;19.60;99.90
51337;DHT22;37421;51.176;17.196;2022-11-02T05:08:42;19.60;99.90
51337;DHT22;37421;51.176;17.196;2022-11-02T05:11:09;19.60;99.90
51337;DHT22;37421;51.176;17.196;2022-11-02T05:13:36;19.70;99.90
51337;DHT22;37421;51.176;17.196;2022-11-02T05:16:40;19.80;99.90
51337;DHT22;37421;51.176;17.196;2022-11-02T05:19:05;20.00;99.90
51337;DHT22;37421;51.176;17.196;2022-11-02T05:21:32;20.00;99.90
51337;DHT22;37421;51.176;17.196;2022-11-02T05:23:58;20.00;99.90
51337;DHT22;37421;51.176;17.196;2022-11-02T05:26:24;20.00;99.90
51337;DHT22;37421;51.176;17.196;2022-11-02T05:28:50;20.10;99.90
51337;DHT22;37421;51.176;17.196;2022-11-02T05:31:17;20.20;99.90
51337;DHT22;37421;51.176;17.196;2022-11-02T05:33:43;20.20;99.90
51337;DHT22;37421;51.176;17.196;2022-11-02T05:36:12;20.20;99.90
51337;DHT22;37421;51.176;17.196;2022-11-02T05:38:38;20.10;99.90
51337;DHT22;37421;51.176;17.196;2022-11-02T05:41:04;20.00;99.90
51337;DHT22;37421;51.176;17.196;2022-11-02T05:43:30;20.00;99.90
51337;DHT22;37421;51.176;17.196;2022-11-02T05:45:59;19.90;99.90
51337;DHT22;37421;51.176;17.196;2022-11-02T05:48:28;19.90;99.90
51337;DHT22;37421;51.176;17.196;2022-11-02T05:50:56;19.90;99.90
51337;DHT22;37421;51.176;17.196;2022-11-02T05:53:28;19.90;99.90
51337;DHT22;37421;51.176;17.196;2022-11-02T05:56:00;19.80;99.90
51337;DHT22;37421;51.176;17.196;2022-11-02T05:58:27;19.80;99.90
51337;DHT22;37421;51.176;17.196;2022-11-02T06:00:53;19.70;99.90
51337;DHT22;37421;51.176;17.196;2022-11-02T06:03:19;19.70;99.90
51337;DHT22;37421;51.176;17.196;2022-11-02T06:05:55;19.70;99.90
51337;DHT22;37421;51.176;17.196;2022-11-02T06:08:21;19.60;99.90
51337;DHT22;37421;51.176;17.196;2022-11-02T06:10:47;19.60;99.90
51337;DHT22;37421;51.176;17.196;2022-11-02T06:13:13;19.60;99.90
51337;DHT22;37421;51.176;17.196;2022-11-02T06:15:39;19.60;99.90
51337;DHT22;37421;51.176;17.196;2022-11-02T06:18:05;19.60;99.90
51337;DHT22;37421;51.176;17.196;2022-11-02T06:20:34;19.60;99.90
51337;DHT22;37421;51.176;17.196;2022-11-02T06:23:00;19.50;99.90
51337;DHT22;37421;51.176;17.196;2022-11-02T06:25:26;19.50;99.90
51337;DHT22;37421;51.176;17.196;2022-11-02T06:27:54;19.50;99.90
51337;DHT22;37421;51.176;17.196;2022-11-02T06:30:22;19.50;99.90
51337;DHT22;37421;51.176;17.196;2022-11-02T06:32:49;19.50;99.90
51337;DHT22;37421;51.176;17.196;2022-11-02T06:35:16;19.40;99.90
51337;DHT22;37421;51.176;17.196;2022-11-02T06:37:43;19.40;99.90
51337;DHT22;37421;51.176;17.196;2022-11-02T06:40:10;19.40;99.90
51337;DHT22;37421;51.176;17.196;2022-11-02T06:42:37;19.40;99.90
51337;DHT22;37421;51.176;17.196;2022-11-02T06:45:03;19.40;99.90
51337;DHT22;37421;51.176;17.196;2022-11-02T06:47:37;19.40;99.90
51337;DHT22;37421;51.176;17.196;2022-11-02T06:50:04;19.40;99.90
51337;DHT22;37421;51.176;17.196;2022-11-02T06:52:31;19.40;99.90
51337;DHT22;37421;51.176;17.196;2022-11-02T06:54:57;19.40;99.90
51337;DHT22;37421;51.176;17.196;2022-11-02T06:57:25;19.40;99.90
51337;DHT22;37421;51.176;17.196;2022-11-02T07:00:00;19.40;99.90
51337;DHT22;37421;51.176;17.196;2022-11-02T07:02:29;19.40;99.90
51337;DHT22;37421;51.176;17.196;2022-11-02T07:05:03;19.40;99.90
51337;DHT22;37421;51.176;17.196;2022-11-02T07:07:29;19.40;99.90
51337;DHT22;37421;51.176;17.196;2022-11-02T07:09:55;19.50;99.90
51337;DHT22;37421;51.176;17.196;2022-11-02T07:12:21;19.60;99.90
51337;DHT22;37421;51.176;17.196;2022-11-02T07:14:49;19.70;99.90
51337;DHT22;37421;51.176;17.196;2022-11-02T07:20:37;19.80;99.90
51337;DHT22;37421;51.176;17.196;2022-11-02T07:23:12;19.80;99.90
51337;DHT22;37421;51.176;17.196;2022-11-02T07:25:38;19.90;99.90
51337;DHT22;37421;51.176;17.196;2022-11-02T07:28:04;19.90;99.90
51337;DHT22;37421;51.176;17.196;2022-11-02T07:30:32;19.90;99.90
51337;DHT22;37421;51.176;17.196;2022-11-02T07:32:59;19.90;99.90
51337;DHT22;37421;51.176;17.196;2022-11-02T07:35:27;19.90;99.90
51337;DHT22;37421;51.176;17.196;2022-11-02T07:38:06;20.00;99.90
51337;DHT22;37421;51.176;17.196;2022-11-02T07:40:34;20.00;99.90
51337;DHT22;37421;51.176;17.196;2022-11-02T07:43:21;20.10;99.90
51337;DHT22;37421;51.176;17.196;2022-11-02T07:45:51;20.00;99.90
51337;DHT22;37421;51.176;17.196;2022-11-02T07:48:25;20.00;99.90
51337;DHT22;37421;51.176;17.196;2022-11-02T07:50:50;20.00;99.90
51337;DHT22;37421;51.176;17.196;2022-11-02T07:53:16;20.00;99.90
51337;DHT22;37421;51.176;17.196;2022-11-02T07:55:42;20.00;99.90
51337;DHT22;37421;51.176;17.196;2022-11-02T07:58:10;20.00;99.90
51337;DHT22;37421;51.176;17.196;2022-11-02T08:00:46;20.00;99.90
51337;DHT22;37421;51.176;17.196;2022-11-02T08:03:14;20.00;99.90
51337;DHT22;37421;51.176;17.196;2022-11-02T08:05:41;20.00;99.90
51337;DHT22;37421;51.176;17.196;2022-11-02T08:08:20;20.00;99.90
51337;DHT22;37421;51.176;17.196;2022-11-02T08:10:49;20.00;99.90
51337;DHT22;37421;51.176;17.196;2022-11-02T08:13:20;20.00;99.90
51337;DHT22;37421;51.176;17.196;2022-11-02T08:15:53;20.00;99.90
51337;DHT22;37421;51.176;17.196;2022-11-02T08:18:24;20.00;99.90
51337;DHT22;37421;51.176;17.196;2022-11-02T08:20:56;20.00;99.90
51337;DHT22;37421;51.176;17.196;2022-11-02T08:23:23;20.00;99.90
51337;DHT22;37421;51.176;17.196;2022-11-02T08:26:01;20.00;99.90
51337;DHT22;37421;51.176;17.196;2022-11-02T08:28:29;20.00;99.90
51337;DHT22;37421;51.176;17.196;2022-11-02T08:31:05;20.10;99.90
51337;DHT22;37421;51.176;17.196;2022-11-02T08:33:35;20.10;99.90
51337;DHT22;37421;51.176;17.196;2022-11-02T08:36:02;20.20;99.90
51337;DHT22;37421;51.176;17.196;2022-11-02T08:38:29;20.20;99.90
51337;DHT22;37421;51.176;17.196;2022-11-02T08:41:05;20.20;99.90
51337;DHT22;37421;51.176;17.196;2022-11-02T08:43:33;20.30;99.90
51337;DHT22;37421;51.176;17.196;2022-11-02T08:46:02;20.30;99.90
51337;DHT22;37421;51.176;17.196;2022-11-02T08:48:28;20.30;99.90
51337;DHT22;37421;51.176;17.196;2022-11-02T08:50:56;20.30;99.90
51337;DHT22;37421;51.176;17.196;2022-11-02T08:53:24;20.40;99.90
51337;DHT22;37421;51.176;17.196;2022-11-02T08:55:50;20.40;99.90
51337;DHT22;37421;51.176;17.196;2022-11-02T08:58:17;20.30;99.90
51337;DHT22;37421;51.176;17.196;2022-11-02T09:00:43;20.40;99.90
51337;DHT22;37421;51.176;17.196;2022-11-02T09:03:15;20.40;99.90
51337;DHT22;37421;51.176;17.196;2022-11-02T09:05:46;20.40;99.90
51337;DHT22;37421;51.176;17.196;2022-11-02T09:08:14;20.50;99.90
51337;DHT22;37421;51.176;17.196;2022-11-02T09:10:50;20.50;99.90
51337;DHT22;37421;51.176;17.196;2022-11-02T09:13:17;20.50;99.90
51337;DHT22;37421;51.176;17.196;2022-11-02T09:15:54;20.50;99.90
51337;DHT22;37421;51.176;17.196;2022-11-02T09:18:21;20.60;99.90
51337;DHT22;37421;51.176;17.196;2022-11-02T09:20:48;20.60;99.90
51337;DHT22;37421;51.176;17.196;2022-11-02T09:23:18;20.60;99.90
51337;DHT22;37421;51.176;17.196;2022-11-02T09:25:46;20.70;99.90
51337;DHT22;37421;51.176;17.196;2022-11-02T09:28:13;20.70;99.90
51337;DHT22;37421;51.176;17.196;2022-11-02T09:30:40;20.70;99.90
51337;DHT22;37421;51.176;17.196;2022-11-02T09:33:06;20.70;99.90
51337;DHT22;37421;51.176;17.196;2022-11-02T09:35:37;20.70;99.90
51337;DHT22;37421;51.176;17.196;2022-11-02T09:38:03;20.70;99.90
51337;DHT22;37421;51.176;17.196;2022-11-02T09:43:55;20.70;99.90
51337;DHT22;37421;51.176;17.196;2022-11-02T09:46:30;20.70;99.90
51337;DHT22;37421;51.176;17.196;2022-11-02T09:49:03;20.80;99.90
51337;DHT22;37421;51.176;17.196;2022-11-02T09:51:43;20.70;99.90
51337;DHT22;37421;51.176;17.196;2022-11-02T09:54:39;20.70;99.90
51337;DHT22;37421;51.176;17.196;2022-11-02T09:57:29;20.90;99.90
51337;DHT22;37421;51.176;17.196;2022-11-02T09:59:55;20.90;99.90
51337;DHT22;37421;51.176;17.196;2022-11-02T10:08:08;20.90;99.90
51337;DHT22;37421;51.176;17.196;2022-11-02T10:18:41;20.90;99.90
51337;DHT22;37421;51.176;17.196;2022-11-02T10:21:19;21.00;99.90
51337;DHT22;37421;51.176;17.196;2022-11-02T10:23:53;21.00;99.90
51337;DHT22;37421;51.176;17.196;2022-11-02T10:26:23;21.00;99.90
51337;DHT22;37421;51.176;17.196;2022-11-02T10:28:58;21.00;99.90
51337;DHT22;37421;51.176;17.196;2022-11-02T10:31:34;21.00;99.90
51337;DHT22;37421;51.176;17.196;2022-11-02T10:34:33;21.00;99.90
51337;DHT22;37421;51.176;17.196;2022-11-02T10:48:37;21.20;99.90
51337;DHT22;37421;51.176;17.196;2022-11-02T10:57:11;20.90;99.90
51337;DHT22;37421;51.176;17.196;2022-11-02T10:59:37;20.90;99.90
51337;DHT22;37421;51.176;17.196;2022-11-02T11:02:07;20.90;99.90
51337;DHT22;37421;51.176;17.196;2022-11-02T11:04:35;20.90;99.90
51337;DHT22;37421;51.176;17.196;2022-11-02T11:07:06;20.90;99.90
51337;DHT22;37421;51.176;17.196;2022-11-02T11:09:55;20.90;99.90
51337;DHT22;37421;51.176;17.196;2022-11-02T11:12:38;21.00;99.90
51337;DHT22;37421;51.176;17.196;2022-11-02T11:15:06;21.00;99.90
51337;DHT22;37421;51.176;17.196;2022-11-02T11:17:35;21.00;99.90
51337;DHT22;37421;51.176;17.196;2022-11-02T11:20:04;21.00;99.90
51337;DHT22;37421;51.176;17.196;2022-11-02T11:22:38;21.00;99.90
51337;DHT22;37421;51.176;17.196;2022-11-02T11:25:20;20.90;99.90
51337;DHT22;37421;51.176;17.196;2022-11-02T11:27:50;21.00;99.90
51337;DHT22;37421;51.176;17.196;2022-11-02T11:30:34;21.00;99.90
51337;DHT22;37421;51.176;17.196;2022-11-02T11:33:14;21.00;99.90
51337;DHT22;37421;51.176;17.196;2022-11-02T11:35:48;21.00;99.90
51337;DHT22;37421;51.176;17.196;2022-11-02T11:38:24;21.00;99.90
51337;DHT22;37421;51.176;17.196;2022-11-02T11:40:54;21.00;99.90
51337;DHT22;37421;51.176;17.196;2022-11-02T11:43:24;21.00;99.90
51337;DHT22;37421;51.176;17.196;2022-11-02T11:45:59;21.10;99.90
51337;DHT22;37421;51.176;17.196;2022-11-02T11:50:58;21.20;99.90
51337;DHT22;37421;51.176;17.196;2022-11-02T11:53:25;21.30;99.90
51337;DHT22;37421;51.176;17.196;2022-11-02T11:55:52;21.20;99.90
51337;DHT22;37421;51.176;17.196;2022-11-02T11:58:25;21.20;99.90
51337;DHT22;37421;51.176;17.196;2022-11-02T12:03:57;21.10;99.90
51337;DHT22;37421;51.176;17.196;2022-11-02T12:06:38;21.10;99.90
51337;DHT22;37421;51.176;17.196;2022-11-02T12:12:06;21.20;99.90
51337;DHT22;37421;51.176;17.196;2022-11-02T12:14:59;21.10;99.90
51337;DHT22;37421;51.176;17.196;2022-11-02T12:17:51;21.10;99.90
51337;DHT22;37421;51.176;17.196;2022-11-02T12:26:19;21.10;99.90
51337;DHT22;37421;51.176;17.196;2022-11-02T12:31:37;21.00;99.90
51337;DHT22;37421;51.176;17.196;2022-11-02T12:34:14;21.00;99.90
51337;DHT22;37421;51.176;17.196;2022-11-02T12:42:36;21.00;99.90
51337;DHT22;37421;51.176;17.196;2022-11-02T12:45:45;21.00;99.90
51337;DHT22;37421;51.176;17.196;2022-11-02T12:48:23;21.00;99.90
51337;DHT22;37421;51.176;17.196;2022-11-02T12:53:42;21.00;99.90
51337;DHT22;37421;51.176;17.196;2022-11-02T12:56:19;21.00;99.90
51337;DHT22;37421;51.176;17.196;2022-11-02T12:58:47;21.00;99.90
51337;DHT22;37421;51.176;17.196;2022-11-02T13:06:45;20.80;99.90
51337;DHT22;37421;51.176;17.196;2022-11-02T13:09:32;20.80;99.90
51337;DHT22;37421;51.176;17.196;2022-11-02T13:12:09;20.80;99.90
51337;DHT22;37421;51.176;17.196;2022-11-02T13:14:42;20.70;99.90
51337;DHT22;37421;51.176;17.196;2022-11-02T13:19:52;20.80;99.90
51337;DHT22;37421;51.176;17.196;2022-11-02T13:22:22;20.80;99.90
51337;DHT22;37421;51.176;17.196;2022-11-02T13:25:11;20.80;99.90
51337;DHT22;37421;51.176;17.196;2022-11-02T13:28:13;20.70;99.90
51337;DHT22;37421;51.176;17.196;2022-11-02T13:30:42;20.60;99.90
51337;DHT22;37421;51.176;17.196;2022-11-02T13:33:29;20.60;99.90
51337;DHT22;37421;51.176;17.196;2022-11-02T13:35:59;20.70;99.90
51337;DHT22;37421;51.176;17.196;2022-11-02T13:38:41;20.70;99.90
51337;DHT22;37421;51.176;17.196;2022-11-02T13:47:06;20.60;99.90
51337;DHT22;37421;51.176;17.196;2022-11-02T13:49:34;20.60;99.90
51337;DHT22;37421;51.176;17.196;2022-11-02T13:52:16;20.60;99.90
51337;DHT22;37421;51.176;17.196;2022-11-02T13:54:56;20.60;99.90
51337;DHT22;37421;51.176;17.196;2022-11-02T13:57:39;21.20;99.90
51337;DHT22;37421;51.176;17.196;2022-11-02T14:03:00;21.30;99.90
51337;DHT22;37421;51.176;17.196;2022-11-02T14:05:30;21.30;99.90
51337;DHT22;37421;51.176;17.196;2022-11-02T14:08:03;21.40;99.90
51337;DHT22;37421;51.176;17.196;2022-11-02T14:10:32;21.30;99.90
51337;DHT22;37421;51.176;17.196;2022-11-02T14:13:00;21.30;99.90
51337;DHT22;37421;51.176;17.196;2022-11-02T14:17:56;21.30;99.90
51337;DHT22;37421;51.176;17.196;2022-11-02T14:25:56;20.90;99.90
51337;DHT22;37421;51.176;17.196;2022-11-02T14:28:42;20.70;99.90
51337;DHT22;37421;51.176;17.196;2022-11-02T14:39:08;20.50;99.90
51337;DHT22;37421;51.176;17.196;2022-11-02T14:49:33;20.30;99.90
51337;DHT22;37421;51.176;17.196;2022-11-02T14:52:14;20.30;99.90
51337;DHT22;37421;51.176;17.196;2022-11-02T14:55:12;20.40;99.90
51337;DHT22;37421;51.176;17.196;2022-11-02T14:58:17;20.40;99.90
51337;DHT22;37421;51.176;17.196;2022-11-02T15:19:45;20.40;99.90
51337;DHT22;37421;51.176;17.196;2022-11-02T15:27:35;20.40;99.90
51337;DHT22;37421;51.176;17.196;2022-11-02T15:30:04;20.40;99.90
51337;DHT22;37421;51.176;17.196;2022-11-02T15:32:34;20.30;99.90
51337;DHT22;37421;51.176;17.196;2022-11-02T15:35:14;20.30;99.90
51337;DHT22;37421;51.176;17.196;2022-11-02T15:37:41;20.30;99.90
51337;DHT22;37421;51.176;17.196;2022-11-02T15:40:20;20.30;99.90
51337;DHT22;37421;51.176;17.196;2022-11-02T15:43:23;20.30;99.90
51337;DHT22;37421;51.176;17.196;2022-11-02T16:02:59;20.20;99.90
51337;DHT22;37421;51.176;17.196;2022-11-02T16:05:24;20.20;99.90
51337;DHT22;37421;51.176;17.196;2022-11-02T16:07:54;20.30;99.90
51337;DHT22;37421;51.176;17.196;2022-11-02T16:13:10;20.30;99.90
51337;DHT22;37421;51.176;17.196;2022-11-02T16:15:37;20.30;99.90
51337;DHT22;37421;51.176;17.196;2022-11-02T16:18:27;20.30;99.90
51337;DHT22;37421;51.176;17.196;2022-11-02T16:21:14;20.30;99.90
51337;DHT22;37421;51.176;17.196;2022-11-02T16:23:52;20.20;99.90
51337;DHT22;37421;51.176;17.196;2022-11-02T16:26:24;20.20;99.90
51337;DHT22;37421;51.176;17.196;2022-11-02T16:28:58;20.20;99.90
51337;DHT22;37421;51.176;17.196;2022-11-02T16:31:28;20.20;99.90
51337;DHT22;37421;51.176;17.196;2022-11-02T16:36:48;20.20;99.90
51337;DHT22;37421;51.176;17.196;2022-11-02T16:39:31;20.20;99.90
51337;DHT22;37421;51.176;17.196;2022-11-02T16:42:20;20.20;99.90
51337;DHT22;37421;51.176;17.196;2022-11-02T16:44:58;20.10;99.90
51337;DHT22;37421;51.176;17.196;2022-11-02T16:47:40;20.10;99.90
51337;DHT22;37421;51.176;17.196;2022-11-02T16:50:25;20.10;99.90
51337;DHT22;37421;51.176;17.196;2022-11-02T16:52:59;20.10;99.90
51337;DHT22;37421;51.176;17.196;2022-11-02T16:55:39;20.00;99.90
51337;DHT22;37421;51.176;17.196;2022-11-02T16:58:11;20.00;99.90
51337;DHT22;37421;51.176;17.196;2022-11-02T17:00:38;20.00;99.90
51337;DHT22;37421;51.176;17.196;2022-11-02T17:03:12;20.00;99.90
51337;DHT22;37421;51.176;17.196;2022-11-02T17:05:40;20.00;99.90
51337;DHT22;37421;51.176;17.196;2022-11-02T17:10:54;19.90;99.90
51337;DHT22;37421;51.176;17.196;2022-11-02T17:13:21;19.90;99.90
51337;DHT22;37421;51.176;17.196;2022-11-02T17:15:50;19.90;99.90
51337;DHT22;37421;51.176;17.196;2022-11-02T17:20:45;19.90;99.90
51337;DHT22;37421;51.176;17.196;2022-11-02T17:23:35;19.90;99.90
51337;DHT22;37421;51.176;17.196;2022-11-02T17:29:02;19.80;99.90
51337;DHT22;37421;51.176;17.196;2022-11-02T17:31:44;19.80;99.90
51337;DHT22;37421;51.176;17.196;2022-11-02T17:34:14;19.80;99.90
51337;DHT22;37421;51.176;17.196;2022-11-02T17:36:48;19.90;99.90
51337;DHT22;37421;51.176;17.196;2022-11-02T17:39:19;19.90;99.90
51337;DHT22;37421;51.176;17.196;2022-11-02T17:41:55;19.90;99.90
51337;DHT22;37421;51.176;17.196;2022-11-02T17:44:40;19.80;99.90
51337;DHT22;37421;51.176;17.196;2022-11-02T17:47:17;19.80;99.90
51337;DHT22;37421;51.176;17.196;2022-11-02T17:49:46;19.80;99.90
51337;DHT22;37421;51.176;17.196;2022-11-02T17:52:13;19.80;99.90
51337;DHT22;37421;51.176;17.196;2022-11-02T17:54:41;19.90;99.90
51337;DHT22;37421;51.176;17.196;2022-11-02T17:57:14;19.90;99.90
51337;DHT22;37421;51.176;17.196;2022-11-02T17:59:40;19.90;99.90
51337;DHT22;37421;51.176;17.196;2022-11-02T18:02:13;19.80;99.90
51337;DHT22;37421;51.176;17.196;2022-11-02T18:04:39;19.80;99.90
51337;DHT22;37421;51.176;17.196;2022-11-02T18:07:05;19.80;99.90
51337;DHT22;37421;51.176;17.196;2022-11-02T18:09:31;19.80;99.90
51337;DHT22;37421;51.176;17.196;2022-11-02T18:11:57;19.80;99.90
51337;DHT22;37421;51.176;17.196;2022-11-02T18:14:23;19.80;99.90
51337;DHT22;37421;51.176;17.196;2022-11-02T18:16:49;19.70;99.90
51337;DHT22;37421;51.176;17.196;2022-11-02T18:19:17;19.70;99.90
51337;DHT22;37421;51.176;17.196;2022-11-02T18:21:46;19.70;99.90
51337;DHT22;37421;51.176;17.196;2022-11-02T18:24:12;19.70;99.90
51337;DHT22;37421;51.176;17.196;2022-11-02T18:26:41;19.60;99.90
51337;DHT22;37421;51.176;17.196;2022-11-02T18:29:09;19.60;99.90
51337;DHT22;37421;51.176;17.196;2022-11-02T18:31:35;19.60;99.90
51337;DHT22;37421;51.176;17.196;2022-11-02T18:34:04;19.60;99.90
51337;DHT22;37421;51.176;17.196;2022-11-02T18:36:34;19.60;99.90
51337;DHT22;37421;51.176;17.196;2022-11-02T18:39:01;19.60;99.90
51337;DHT22;37421;51.176;17.196;2022-11-02T18:41:27;19.60;99.90
51337;DHT22;37421;51.176;17.196;2022-11-02T18:43:57;19.70;99.90
51337;DHT22;37421;51.176;17.196;2022-11-02T18:46:24;19.70;99.90
51337;DHT22;37421;51.176;17.196;2022-11-02T18:48:53;19.70;99.90
51337;DHT22;37421;51.176;17.196;2022-11-02T18:51:19;19.70;99.90
51337;DHT22;37421;51.176;17.196;2022-11-02T18:53:45;19.80;99.90
51337;DHT22;37421;51.176;17.196;2022-11-02T18:56:16;19.70;99.90
51337;DHT22;37421;51.176;17.196;2022-11-02T18:58:47;19.70;99.90